Terminal Aerodrome Forecast
Issued by NWS Wichita, KS

Home | Current Version | Previous Version | Text Only | Print | Product List | Glossary On
Versions: 1 2 3 4 5 6 7 8 9 10 11 12 13 14 15
000
FTUS43 KICT 121700
TAFICT
TAF
KICT 121731Z 1218/1318 21017G24KT P6SM SKC
     FM122100 19011KT P6SM SCT120
     FM130900 22008KT P6SM BKN120
     FM131400 01010KT P6SM BKN120=

USA.gov is the U.S. government's official web portal to all federal, state and local government web resources and services.